KBCB/BCB METAR and TAF weather

Enter ICAO airport designator
Station Type Date Time Source
KBCB METAR 2020/04/05 12:15 UTC NOAA

KBCB 051215Z AUTO 00000KT 10SM CLR 09/07 A3013 RMK AO2 T00860066


Station Type Date Time Source
KBCB Decoded METAR 2020/04/05 12:15 UTC NOAA

Virginia Tech Airport, VA, United States (KBCB) 37-13N 080-25W
Apr 05, 2020 - 08:15 AM EDT / 2020.04.05 1215 UTC
Wind: Calm:0
Visibility: 10 mile(s):0
Sky conditions: clear
Temperature: 47.5 F (8.6 C)
Dew Point: 43.9 F (6.6 C)
Relative Humidity: 87%
Pressure (altimeter): 30.13 in. Hg (1020 hPa)
ob: KBCB 051215Z AUTO 00000KT 10SM CLR 09/07 A3013 RMK AO2 T00860066
cycle: 12

Station Type Date Time Source
KBCB TAF 2020/04/05 12:22 UTC NOAA

TAF KBCB 051120Z 0512/0612 12004KT P6SM SCT070 BKN250
FM051400 12005KT P6SM BKN070 OVC200
FM052000 14006KT P6SM VCSH BKN045 OVC120
FM060100 VRB03KT P6SM SCT040 OVC100

Example: see airport list